Time;durP1;ratioP1;P1;durP2;ratioP2;P2;SDS_P1;SDS_P2;PMS_P1;PMS_P2;Temp;Humidity;BMP_temperature;BMP_pressure;BME280_temperature;BME280_humidity;BME280_pressure;Samples;Min_cycle;Max_cycle;Signal;HPM_P1;HPM_P2
2023/12/16 00:00:47;;;;;;;15.32;11.38;;;6.20;99.90;;;;;;7374984;19;20652;-68
2023/12/16 00:03:20;;;;;;;16.77;12.18;;;6.00;99.90;;;;;;7380276;19;20110;-68
2023/12/16 00:05:50;;;;;;;14.32;11.75;;;6.10;99.90;;;;;;7376827;19;20044;-69
2023/12/16 00:08:21;;;;;;;16.98;12.23;;;6.10;99.90;;;;;;7375602;19;20006;-69
2023/12/16 00:10:51;;;;;;;16.10;11.77;;;6.20;99.90;;;;;;7376069;19;20030;-69
2023/12/16 00:13:25;;;;;;;14.82;12.00;;;6.10;99.90;;;;;;7374875;19;20142;-69
2023/12/16 00:15:55;;;;;;;18.17;11.75;;;6.10;99.80;;;;;;7374859;19;20017;-69
2023/12/16 00:18:28;;;;;;;15.77;12.25;;;6.20;99.90;;;;;;7374798;19;20035;-69
2023/12/16 00:20:58;;;;;;;18.02;12.18;;;6.20;99.00;;;;;;7375286;19;20018;-69
2023/12/16 00:23:28;;;;;;;17.10;11.45;;;6.10;96.70;;;;;;7374873;19;20010;-69
2023/12/16 00:25:58;;;;;;;19.00;12.70;;;6.10;96.20;;;;;;7374580;19;20010;-68
2023/12/16 00:28:28;;;;;;;17.58;12.57;;;6.10;94.40;;;;;;7375195;19;20011;-68
2023/12/16 00:30:58;;;;;;;16.13;12.35;;;6.10;94.10;;;;;;7381216;19;20010;-68
2023/12/16 00:33:30;;;;;;;17.20;11.07;;;6.10;94.90;;;;;;7382195;19;20026;-68
2023/12/16 00:36:00;;;;;;;16.60;11.02;;;6.10;95.60;;;;;;7382012;19;20018;-68
2023/12/16 00:38:30;;;;;;;14.57;11.20;;;6.10;96.10;;;;;;7379975;19;20014;-68
2023/12/16 00:41:00;;;;;;;15.32;10.80;;;6.10;91.90;;;;;;7381695;19;20007;-68
2023/12/16 00:43:31;;;;;;;17.48;11.45;;;6.00;89.30;;;;;;7382167;19;20017;-68
2023/12/16 00:46:01;;;;;;;16.48;11.65;;;6.00;90.20;;;;;;7382202;19;20017;-69
2023/12/16 00:48:33;;;;;;;19.90;12.05;;;6.00;90.90;;;;;;7381338;19;20115;-68
2023/12/16 00:51:03;;;;;;;12.57;9.88;;;6.00;90.30;;;;;;7382395;19;20784;-68
2023/12/16 00:53:33;;;;;;;15.20;10.85;;;6.00;90.90;;;;;;7381886;19;20471;-68
2023/12/16 00:56:03;;;;;;;13.82;10.90;;;6.10;88.20;;;;;;7381505;19;20360;-68
2023/12/16 00:58:33;;;;;;;15.43;10.25;;;6.00;85.90;;;;;;7380427;19;20010;-68
2023/12/16 01:01:03;;;;;;;16.77;11.65;;;6.00;79.30;;;;;;7382028;19;20019;-68
2023/12/16 01:03:37;;;;;;;13.75;11.35;;;6.00;84.10;;;;;;7381261;19;20151;-68
2023/12/16 01:06:07;;;;;;;15.20;10.98;;;6.00;84.10;;;;;;7382030;19;20015;-68
2023/12/16 01:08:38;;;;;;;14.68;11.38;;;6.10;81.30;;;;;;7379732;19;20562;-68
2023/12/16 01:11:08;;;;;;;18.85;11.57;;;6.10;72.70;;;;;;7380923;19;20483;-68
2023/12/16 01:13:38;;;;;;;14.38;11.20;;;6.10;67.90;;;;;;7381998;19;20014;-68
2023/12/16 01:16:09;;;;;;;14.48;10.75;;;6.10;65.70;;;;;;7381353;19;20014;-68
2023/12/16 01:18:41;;;;;;;21.33;11.90;;;6.10;70.10;;;;;;7379780;19;19999;-68
2023/12/16 01:21:12;;;;;;;13.10;10.75;;;6.10;66.00;;;;;;7381688;19;20557;-68
2023/12/16 01:23:41;;;;;;;13.30;10.63;;;6.10;65.60;;;;;;7380558;19;20015;-68
2023/12/16 01:26:11;;;;;;;14.82;11.30;;;6.10;61.80;;;;;;7380823;19;20019;-68
2023/12/16 01:28:41;;;;;;;14.95;10.98;;;6.20;65.80;;;;;;7379770;19;20041;-69
2023/12/16 01:31:11;;;;;;;16.27;11.30;;;6.10;55.80;;;;;;7381208;19;20030;-68
2023/12/16 01:33:44;;;;;;;15.18;10.75;;;6.10;54.90;;;;;;7381248;19;20043;-68
2023/12/16 01:36:19;;;;;;;16.85;11.43;;;6.10;51.20;;;;;;7381803;19;20006;-68
2023/12/16 01:38:49;;;;;;;15.63;11.15;;;6.10;52.20;;;;;;7379679;19;20432;-68
2023/12/16 01:41:19;;;;;;;15.90;11.85;;;6.10;53.80;;;;;;7379889;19;20495;-68
2023/12/16 01:43:49;;;;;;;14.95;10.77;;;6.10;58.30;;;;;;7381120;19;20033;-69
2023/12/16 01:46:20;;;;;;;16.08;12.38;;;6.20;62.60;;;;;;7381220;19;20045;-68
2023/12/16 01:48:53;;;;;;;16.20;11.98;;;6.20;64.30;;;;;;7380223;19;20010;-68
2023/12/16 01:51:23;;;;;;;17.70;11.40;;;6.20;64.60;;;;;;7378247;19;20034;-68
2023/12/16 01:53:53;;;;;;;17.65;12.60;;;6.10;58.30;;;;;;7379370;19;20025;-68
2023/12/16 01:56:24;;;;;;;17.55;11.57;;;6.10;55.90;;;;;;7380287;19;20008;-68
2023/12/16 01:58:54;;;;;;;15.63;12.07;;;6.00;54.80;;;;;;7379392;19;20014;-68
2023/12/16 02:01:24;;;;;;;17.55;11.85;;;6.00;59.00;;;;;;7380251;19;20006;-68
2023/12/16 02:03:58;;;;;;;16.30;11.68;;;6.00;60.70;;;;;;7380001;19;20010;-69
2023/12/16 02:06:28;;;;;;;17.15;13.32;;;6.00;64.80;;;;;;7381175;19;20070;-68
2023/12/16 02:08:59;;;;;;;15.57;11.73;;;6.00;68.20;;;;;;7380465;19;20388;-68
2023/12/16 02:11:29;;;;;;;18.55;12.48;;;6.00;70.60;;;;;;7379837;19;20025;-68
2023/12/16 02:13:59;;;;;;;19.77;11.77;;;6.00;77.40;;;;;;7379501;19;20007;-68
2023/12/16 02:16:29;;;;;;;18.65;13.05;;;6.00;79.30;;;;;;7379167;19;20010;-68
2023/12/16 02:19:01;;;;;;;16.75;11.55;;;6.00;87.60;;;;;;7378894;19;20006;-68
2023/12/16 02:21:32;;;;;;;18.33;13.02;;;6.00;89.30;;;;;;7379862;19;20013;-68
2023/12/16 02:24:04;;;;;;;16.02;12.00;;;5.90;90.40;;;;;;7378496;19;20030;-68
2023/12/16 02:26:34;;;;;;;15.43;12.32;;;5.90;90.10;;;;;;7379008;19;20057;-68
2023/12/16 02:29:04;;;;;;;19.92;12.18;;;5.90;95.60;;;;;;7378547;19;20010;-68
2023/12/16 02:31:34;;;;;;;17.77;11.90;;;5.90;99.20;;;;;;7379561;19;20009;-68
2023/12/16 02:34:05;;;;;;;16.95;12.90;;;5.90;98.40;;;;;;7379776;19;20014;-68
2023/12/16 02:36:35;;;;;;;16.35;12.25;;;5.80;99.90;;;;;;7379448;19;20013;-68
2023/12/16 02:39:09;;;;;;;23.23;13.70;;;5.90;99.90;;;;;;7379650;19;20011;-68
2023/12/16 02:41:39;;;;;;;16.95;13.15;;;5.90;99.90;;;;;;7378936;19;20014;-68
2023/12/16 02:44:09;;;;;;;17.75;13.23;;;5.90;99.90;;;;;;7377809;19;20026;-69
2023/12/16 02:46:38;;;;;;;18.98;13.55;;;5.90;99.10;;;;;;7377692;19;20081;-68
2023/12/16 02:49:08;;;;;;;20.55;13.93;;;5.90;99.90;;;;;;7378486;19;20010;-68
2023/12/16 02:51:38;;;;;;;21.02;14.23;;;5.90;99.90;;;;;;7377618;19;20014;-68
2023/12/16 02:54:11;;;;;;;21.33;14.55;;;5.90;99.90;;;;;;7378012;19;20495;-68
2023/12/16 02:56:41;;;;;;;18.30;13.70;;;6.00;99.90;;;;;;7377773;19;20018;-68
2023/12/16 02:59:11;;;;;;;18.60;13.55;;;5.90;99.90;;;;;;7378366;19;20011;-68
2023/12/16 03:01:41;;;;;;;19.02;12.68;;;6.00;99.90;;;;;;7378025;19;20039;-68
2023/12/16 03:04:11;;;;;;;18.92;12.98;;;6.00;99.90;;;;;;7377915;19;20021;-68
2023/12/16 03:06:44;;;;;;;16.23;11.85;;;6.00;99.90;;;;;;7376453;19;20042;-68
2023/12/16 03:09:17;;;;;;;16.88;12.15;;;5.90;99.40;;;;;;7378703;19;20039;-68
2023/12/16 03:11:47;;;;;;;14.25;11.80;;;5.90;97.30;;;;;;7378209;19;20003;-68
2023/12/16 03:14:19;;;;;;;15.23;11.52;;;6.00;98.90;;;;;;7377948;19;20462;-68
2023/12/16 03:16:50;;;;;;;19.15;12.10;;;6.00;99.90;;;;;;7377861;19;20018;-69
2023/12/16 03:19:20;;;;;;;16.73;11.40;;;6.00;99.90;;;;;;7377963;19;20010;-68
2023/12/16 03:21:50;;;;;;;17.27;11.95;;;6.00;97.90;;;;;;7377962;19;20344;-68
2023/12/16 03:24:22;;;;;;;14.45;11.13;;;6.00;94.10;;;;;;7377816;19;20356;-68
2023/12/16 03:26:52;;;;;;;15.30;11.50;;;5.90;92.40;;;;;;7377589;19;20014;-68
2023/12/16 03:29:22;;;;;;;14.18;11.15;;;5.90;93.00;;;;;;7377480;19;20352;-68
2023/12/16 03:31:53;;;;;;;17.65;11.07;;;5.90;95.70;;;;;;7378546;19;20035;-68
2023/12/16 03:34:24;;;;;;;15.30;11.30;;;6.00;96.80;;;;;;7379132;19;20006;-68
2023/12/16 03:36:54;;;;;;;17.02;11.85;;;6.00;94.10;;;;;;7372739;19;20014;-68
2023/12/16 03:39:26;;;;;;;14.88;11.80;;;6.00;92.70;;;;;;7373539;19;20022;-67
2023/12/16 03:41:56;;;;;;;16.77;11.40;;;6.00;93.90;;;;;;7374663;19;20020;-68
2023/12/16 03:44:26;;;;;;;12.65;10.30;;;6.00;92.70;;;;;;7375728;19;20017;-68
2023/12/16 03:46:57;;;;;;;13.93;11.15;;;5.90;87.60;;;;;;7375317;19;20010;-68
2023/12/16 03:49:28;;;;;;;15.02;11.32;;;5.90;88.90;;;;;;7375615;19;20025;-68
2023/12/16 03:51:58;;;;;;;16.77;11.23;;;5.90;90.70;;;;;;7376850;19;20035;-68
2023/12/16 03:54:31;;;;;;;13.65;10.98;;;5.90;89.70;;;;;;7376016;19;20014;-68
2023/12/16 03:57:01;;;;;;;13.00;11.10;;;6.00;90.00;;;;;;7374646;19;20014;-68
2023/12/16 03:59:31;;;;;;;16.67;11.27;;;5.90;87.80;;;;;;7374976;19;20509;-68
2023/12/16 04:02:01;;;;;;;15.38;11.05;;;5.90;90.10;;;;;;7372994;19;20024;-68
2023/12/16 04:04:32;;;;;;;13.85;10.65;;;5.90;87.60;;;;;;7374614;19;20076;-68
2023/12/16 04:07:03;;;;;;;16.58;11.27;;;5.90;83.80;;;;;;7374405;19;20019;-68
2023/12/16 04:09:36;;;;;;;13.07;10.85;;;5.90;86.50;;;;;;7375831;19;20011;-68
2023/12/16 04:12:06;;;;;;;13.73;9.80;;;5.90;90.70;;;;;;7375830;19;20002;-68
2023/12/16 04:14:39;;;;;;;15.07;11.55;;;5.90;91.40;;;;;;7375797;19;20007;-68
2023/12/16 04:17:09;;;;;;;15.18;11.23;;;5.90;91.60;;;;;;7375154;19;20507;-68
2023/12/16 04:19:39;;;;;;;14.75;11.32;;;5.90;95.70;;;;;;7374905;19;20718;-68
2023/12/16 04:22:09;;;;;;;16.90;12.73;;;5.90;97.60;;;;;;7376271;19;20011;-68
2023/12/16 04:24:42;;;;;;;14.32;12.07;;;5.90;99.90;;;;;;7375511;19;20035;-68
2023/12/16 04:27:12;;;;;;;15.23;11.35;;;5.90;99.90;;;;;;7375673;19;20464;-68
2023/12/16 04:29:42;;;;;;;14.73;11.48;;;5.90;99.90;;;;;;7375486;19;20006;-68
2023/12/16 04:32:12;;;;;;;15.10;10.98;;;5.90;99.90;;;;;;7376346;19;20027;-68
2023/12/16 04:34:42;;;;;;;12.77;10.35;;;5.90;99.90;;;;;;7376432;19;20026;-68
2023/12/16 04:37:13;;;;;;;11.75;10.00;;;5.80;99.90;;;;;;7374972;19;20014;-68
2023/12/16 04:39:45;;;;;;;11.65;9.60;;;5.80;99.90;;;;;;7374780;19;19999;-68
2023/12/16 04:42:15;;;;;;;11.57;9.43;;;5.80;99.90;;;;;;7374866;19;20014;-69
2023/12/16 04:44:46;;;;;;;12.90;10.30;;;5.80;99.90;;;;;;7375037;19;20492;-68
2023/12/16 04:47:16;;;;;;;11.38;9.27;;;5.80;99.00;;;;;;7374152;19;20017;-68
2023/12/16 04:49:46;;;;;;;12.23;9.13;;;5.80;95.40;;;;;;7373303;19;20013;-68
2023/12/16 04:52:17;;;;;;;12.88;9.23;;;5.80;95.70;;;;;;7373962;19;20035;-69
2023/12/16 04:54:50;;;;;;;12.48;9.57;;;5.80;95.00;;;;;;7372803;19;21537;-68
2023/12/16 04:57:20;;;;;;;14.27;9.93;;;5.80;97.80;;;;;;7374494;19;20456;-68
2023/12/16 04:59:50;;;;;;;13.48;9.30;;;5.80;99.00;;;;;;7374050;19;20011;-68
2023/12/16 05:02:20;;;;;;;13.07;9.77;;;5.80;97.70;;;;;;7365282;19;20033;-68
2023/12/16 05:04:51;;;;;;;11.77;9.40;;;5.80;96.20;;;;;;7370378;19;20011;-68
2023/12/16 05:07:22;;;;;;;12.68;10.60;;;5.70;96.20;;;;;;7371991;19;20039;-68
2023/12/16 05:09:56;;;;;;;11.90;9.25;;;5.70;96.20;;;;;;7372931;19;20022;-68
2023/12/16 05:12:27;;;;;;;12.77;9.27;;;5.60;98.50;;;;;;7368571;19;20022;-68
2023/12/16 05:15:06;;;;;;;12.90;9.70;;;5.60;99.90;;;;;;7367208;19;20010;-68
2023/12/16 05:17:37;;;;;;;12.48;9.82;;;5.60;99.90;;;;;;7376009;19;20010;-68
2023/12/16 05:20:09;;;;;;;11.77;9.32;;;5.60;99.90;;;;;;7378684;19;20010;-69
2023/12/16 05:22:39;;;;;;;12.25;9.52;;;5.50;99.90;;;;;;7380498;19;20698;-68
2023/12/16 05:25:12;;;;;;;12.48;9.60;;;5.50;99.90;;;;;;7381351;19;20688;-68
2023/12/16 05:27:42;;;;;;;12.65;9.93;;;5.50;99.90;;;;;;7380245;19;20083;-68
2023/12/16 05:30:13;;;;;;;13.18;10.10;;;5.50;99.90;;;;;;7381295;19;20003;-68
2023/12/16 05:32:41;;;;;;;16.77;10.18;;;5.50;99.90;;;;;;7381535;19;20014;-68
2023/12/16 05:35:11;;;;;;;12.30;9.82;;;5.50;99.90;;;;;;7381146;19;20374;-68
2023/12/16 05:37:41;;;;;;;12.38;9.35;;;5.60;99.90;;;;;;7380626;19;20024;-68
2023/12/16 05:40:14;;;;;;;14.60;10.65;;;5.50;99.90;;;;;;7380907;19;20010;-67
2023/12/16 05:42:44;;;;;;;13.25;10.27;;;5.50;99.90;;;;;;7379659;19;20011;-68
2023/12/16 05:45:14;;;;;;;11.00;9.70;;;5.50;99.90;;;;;;7380713;19;20013;-67
2023/12/16 05:47:44;;;;;;;13.77;9.77;;;5.60;99.90;;;;;;7379084;19;20022;-68
2023/12/16 05:50:14;;;;;;;12.77;9.85;;;5.60;99.90;;;;;;7379732;19;20474;-68
2023/12/16 05:52:44;;;;;;;12.32;9.82;;;5.60;99.90;;;;;;7380021;19;20032;-68
2023/12/16 05:55:16;;;;;;;11.88;9.60;;;5.70;99.90;;;;;;7379395;19;20018;-69
2023/12/16 05:57:46;;;;;;;12.80;10.23;;;5.70;99.90;;;;;;7376656;19;20027;-68
2023/12/16 06:00:18;;;;;;;11.90;9.45;;;5.70;99.90;;;;;;7379991;19;20006;-68
2023/12/16 06:02:48;;;;;;;11.68;9.70;;;5.70;99.90;;;;;;7379351;19;20010;-68
2023/12/16 06:05:18;;;;;;;10.35;9.27;;;5.60;99.90;;;;;;7378105;19;20055;-68
2023/12/16 06:07:48;;;;;;;9.93;8.13;;;5.60;99.90;;;;;;7377867;19;20082;-69
2023/12/16 06:10:22;;;;;;;10.38;8.77;;;5.60;99.90;;;;;;7379368;19;20027;-68
2023/12/16 06:12:52;;;;;;;9.15;7.70;;;5.60;99.90;;;;;;7379145;19;20021;-68
2023/12/16 06:15:22;;;;;;;9.15;7.45;;;5.60;99.90;;;;;;7378986;19;20034;-68
2023/12/16 06:17:52;;;;;;;9.73;7.78;;;5.60;99.90;;;;;;7377912;19;20026;-67
2023/12/16 06:20:22;;;;;;;10.02;7.78;;;5.60;99.90;;;;;;7378072;19;20034;-68
2023/12/16 06:22:52;;;;;;;11.00;8.10;;;5.60;99.20;;;;;;7378478;19;20026;-68
2023/12/16 06:25:24;;;;;;;9.80;7.57;;;5.60;94.90;;;;;;7379100;19;20052;-68
2023/12/16 06:27:54;;;;;;;9.23;7.10;;;5.70;93.10;;;;;;7377624;19;20018;-67
2023/12/16 06:30:24;;;;;;;8.98;7.13;;;5.70;86.40;;;;;;7378604;19;20086;-68
2023/12/16 06:32:55;;;;;;;8.68;7.18;;;5.70;82.80;;;;;;7377552;19;20027;-68
2023/12/16 06:35:25;;;;;;;9.60;7.20;;;5.60;76.80;;;;;;7378005;19;20372;-68
2023/12/16 06:37:55;;;;;;;12.45;7.35;;;5.60;74.80;;;;;;7377253;19;20003;-68
2023/12/16 06:40:27;;;;;;;9.02;7.03;;;5.60;68.20;;;;;;7378397;19;20035;-68
2023/12/16 06:42:57;;;;;;;10.45;7.43;;;5.50;63.80;;;;;;7378083;19;20010;-68
2023/12/16 06:45:27;;;;;;;13.73;7.70;;;5.50;66.80;;;;;;7377782;19;20419;-68
2023/12/16 06:47:57;;;;;;;11.05;7.65;;;5.50;63.50;;;;;;7376817;19;20010;-68
2023/12/16 06:50:27;;;;;;;13.00;7.07;;;5.50;60.20;;;;;;7378061;19;20612;-68
2023/12/16 06:52:57;;;;;;;13.82;8.07;;;5.50;58.00;;;;;;7378162;19;20006;-68
2023/12/16 06:55:30;;;;;;;11.20;6.53;;;5.50;57.20;;;;;;7377845;19;20742;-68
2023/12/16 06:58:00;;;;;;;12.80;7.53;;;5.50;53.90;;;;;;7377792;19;20015;-68
2023/12/16 07:00:30;;;;;;;11.13;7.40;;;5.40;47.30;;;;;;7377390;19;20010;-68
2023/12/16 07:03:00;;;;;;;11.88;8.80;;;5.40;36.30;;;;;;7377421;19;20022;-69
2023/12/16 07:05:32;;;;;;;11.38;6.78;;;5.40;37.30;;;;;;7376750;19;20580;-67
2023/12/16 07:08:03;;;;;;;12.77;7.57;;;5.40;32.90;;;;;;7375351;19;20050;-68
2023/12/16 07:10:36;;;;;;;8.77;6.40;;;5.40;30.40;;;;;;7379168;19;20356;-69
2023/12/16 07:13:07;;;;;;;9.77;6.75;;;5.40;35.20;;;;;;7378892;19;20014;-69
2023/12/16 07:15:37;;;;;;;7.00;6.30;;;5.40;30.60;;;;;;7374524;19;20336;-67
2023/12/16 07:18:07;;;;;;;10.80;6.65;;;5.40;27.50;;;;;;7376338;19;20436;-68
2023/12/16 07:20:37;;;;;;;13.15;6.03;;;5.40;21.70;;;;;;7376291;19;20014;-68
2023/12/16 07:23:07;;;;;;;10.27;6.05;;;5.40;17.30;;;;;;7376297;19;20007;-67
2023/12/16 07:25:40;;;;;;;11.38;6.68;;;5.30;9.80;;;;;;7377111;19;20039;-67
2023/12/16 07:28:10;;;;;;;12.02;6.72;;;5.30;10.20;;;;;;7376843;19;20021;-68
2023/12/16 07:30:40;;;;;;;10.13;6.95;;;5.30;13.20;;;;;;7375772;19;20425;-68
2023/12/16 07:33:10;;;;;;;9.50;6.70;;;5.30;16.20;;;;;;7374026;19;20018;-68
2023/12/16 07:35:40;;;;;;;9.75;7.65;;;5.40;18.30;;;;;;7377344;19;20014;-68
2023/12/16 07:38:11;;;;;;;10.05;6.88;;;5.40;19.80;;;;;;7376208;19;20366;-67
2023/12/16 07:40:43;;;;;;;11.80;6.93;;;5.40;20.10;;;;;;7378213;19;20010;-68
2023/12/16 07:43:13;;;;;;;8.75;5.95;;;5.40;17.50;;;;;;7377019;19;20035;-68
2023/12/16 07:45:43;;;;;;;9.82;6.70;;;5.40;14.00;;;;;;7376079;19;20449;-68
2023/12/16 07:48:14;;;;;;;8.20;6.63;;;5.30;11.80;;;;;;7379432;19;20035;-68
2023/12/16 07:50:44;;;;;;;9.00;6.60;;;5.30;9.00;;;;;;7378481;19;20010;-68
2023/12/16 07:53:14;;;;;;;12.50;6.85;;;5.30;9.70;;;;;;7378969;19;20010;-69
2023/12/16 07:55:47;;;;;;;12.40;6.63;;;5.30;1.00;;;;;;7375505;19;20018;-68
2023/12/16 07:58:17;;;;;;;19.58;7.13;;;5.30;2.90;;;;;;7375777;19;20017;-68
2023/12/16 08:00:47;;;;;;;14.63;6.80;;;5.40;1.00;;;;;;7377497;19;20527;-68
2023/12/16 08:03:17;;;;;;;13.57;6.80;;;5.40;1.00;;;;;;7378496;19;20018;-67
2023/12/16 08:05:47;;;;;;;11.40;6.45;;;5.30;1.00;;;;;;7379495;19;20035;-67
2023/12/16 08:08:17;;;;;;;18.88;6.88;;;5.40;1.00;;;;;;7375807;19;20020;-69
2023/12/16 08:10:53;;;;;;;12.13;7.13;;;5.40;1.00;;;;;;7377658;19;20017;-68
2023/12/16 08:13:23;;;;;;;12.55;6.43;;;5.50;1.00;;;;;;7373227;19;20036;-68
2023/12/16 08:15:53;;;;;;;8.25;6.32;;;5.50;1.00;;;;;;7373907;19;20082;-67
2023/12/16 08:18:23;;;;;;;9.63;6.38;;;5.50;1.00;;;;;;7374297;19;20075;-68
2023/12/16 08:20:53;;;;;;;7.75;6.50;;;5.40;1.00;;;;;;7376108;19;20035;-68
2023/12/16 08:23:23;;;;;;;8.02;6.03;;;5.50;1.00;;;;;;7375981;19;20003;-68
2023/12/16 08:25:56;;;;;;;9.65;6.40;;;5.50;1.00;;;;;;7376372;19;20025;-68
2023/12/16 08:28:26;;;;;;;9.38;6.78;;;5.50;1.00;;;;;;7375811;19;20022;-68
2023/12/16 08:30:56;;;;;;;7.32;6.38;;;5.60;1.00;;;;;;7375725;19;20014;-69
2023/12/16 08:33:26;;;;;;;8.27;6.57;;;5.60;1.00;;;;;;7375655;19;20031;-69
2023/12/16 08:35:56;;;;;;;9.00;6.68;;;5.60;1.00;;;;;;7375984;19;20015;-69
2023/12/16 08:38:26;;;;;;;9.15;7.25;;;5.50;1.00;;;;;;7375811;19;20056;-69
2023/12/16 08:40:59;;;;;;;8.40;7.20;;;5.50;1.00;;;;;;7375241;19;20015;-69
2023/12/16 08:43:29;;;;;;;9.38;7.43;;;5.70;1.00;;;;;;7368506;19;20014;-69
2023/12/16 08:46:00;;;;;;;12.95;9.50;;;5.60;1.00;;;;;;7368542;19;20006;-69
2023/12/16 08:48:31;;;;;;;11.55;7.60;;;5.50;1.00;;;;;;7365408;19;20010;-70
2023/12/16 08:51:01;;;;;;;10.65;7.53;;;5.50;1.00;;;;;;7373977;19;20034;-70
2023/12/16 08:53:32;;;;;;;10.23;7.97;;;5.50;1.00;;;;;;7376441;19;20019;-70
2023/12/16 08:56:06;;;;;;;10.18;7.80;;;5.50;1.00;;;;;;7369422;19;20467;-69
2023/12/16 08:58:37;;;;;;;11.60;9.07;;;5.60;1.00;;;;;;7378743;19;20351;-69
2023/12/16 09:01:07;;;;;;;10.15;8.32;;;5.70;1.00;;;;;;7380109;19;20479;-69
2023/12/16 09:03:39;;;;;;;11.30;8.05;;;5.90;1.00;;;;;;7377793;19;20086;-69
2023/12/16 09:06:09;;;;;;;11.63;8.23;;;5.90;1.00;;;;;;7379042;19;20010;-68
2023/12/16 09:08:39;;;;;;;9.90;8.82;;;5.90;1.00;;;;;;7382595;19;20576;-69
2023/12/16 09:11:12;;;;;;;10.63;7.70;;;6.00;1.00;;;;;;7382169;19;20006;-69
2023/12/16 09:13:42;;;;;;;9.93;8.18;;;6.10;1.00;;;;;;7381554;19;20014;-69
2023/12/16 09:16:12;;;;;;;9.57;7.25;;;6.10;1.00;;;;;;7381479;19;20011;-68
2023/12/16 09:18:42;;;;;;;11.85;8.30;;;6.10;1.00;;;;;;7378603;19;20014;-68
2023/12/16 09:21:18;;;;;;;10.00;8.00;;;6.10;1.00;;;;;;7381266;19;20019;-68
2023/12/16 09:23:48;;;;;;;11.35;8.20;;;6.00;1.00;;;;;;7376294;19;20010;-68
2023/12/16 09:26:21;;;;;;;9.90;7.10;;;6.20;1.00;;;;;;7381629;19;20531;-68
2023/12/16 09:28:51;;;;;;;13.63;7.38;;;6.10;1.00;;;;;;7378630;19;20847;-69
2023/12/16 09:31:21;;;;;;;8.77;7.30;;;6.30;1.00;;;;;;7379308;19;20010;-69
2023/12/16 09:33:51;;;;;;;9.50;7.43;;;6.30;1.00;;;;;;7379466;19;20538;-69
2023/12/16 09:36:26;;;;;;;12.00;7.75;;;6.30;1.00;;;;;;7381594;19;20010;-69
2023/12/16 09:38:57;;;;;;;8.82;6.53;;;6.30;1.00;;;;;;7380877;19;20019;-69
2023/12/16 09:41:31;;;;;;;13.27;7.13;;;6.30;1.00;;;;;;7381205;19;20263;-69
2023/12/16 09:44:03;;;;;;;7.03;5.50;;;6.30;1.00;;;;;;7380876;19;20032;-69
2023/12/16 09:46:33;;;;;;;11.63;6.57;;;6.40;1.00;;;;;;7380427;19;20018;-69
2023/12/16 09:49:04;;;;;;;8.40;5.63;;;6.50;1.00;;;;;;7380782;19;20014;-69
2023/12/16 09:51:35;;;;;;;8.52;6.88;;;6.40;1.00;;;;;;7378352;19;20010;-70
2023/12/16 09:54:06;;;;;;;11.73;6.97;;;6.40;1.00;;;;;;7381410;19;20013;-70
2023/12/16 09:56:40;;;;;;;10.27;6.70;;;6.60;1.00;;;;;;7377610;19;20115;-68
2023/12/16 09:59:12;;;;;;;10.50;6.50;;;6.60;1.00;;;;;;7382469;19;20010;-70
2023/12/16 10:01:42;;;;;;;8.68;6.43;;;6.60;1.00;;;;;;7379603;19;20017;-70
2023/12/16 10:04:13;;;;;;;9.93;6.95;;;6.70;1.00;;;;;;7379453;19;20456;-70
2023/12/16 10:06:43;;;;;;;9.07;6.60;;;6.60;1.00;;;;;;7379943;19;20010;-68
2023/12/16 10:09:13;;;;;;;10.88;7.75;;;6.70;1.00;;;;;;7381049;19;20383;-69
2023/12/16 10:11:45;;;;;;;10.15;7.43;;;6.90;1.00;;;;;;7376956;19;20006;-68
2023/12/16 10:14:15;;;;;;;10.32;7.47;;;6.90;1.00;;;;;;7378293;19;20015;-68
2023/12/16 10:16:47;;;;;;;9.82;7.30;;;6.80;1.00;;;;;;7379592;19;20010;-68
2023/12/16 10:19:20;;;;;;;9.77;7.47;;;6.90;1.00;;;;;;7380200;19;20007;-68
2023/12/16 10:21:50;;;;;;;12.55;7.47;;;6.90;1.00;;;;;;7383162;19;20047;-68
2023/12/16 10:24:20;;;;;;;8.40;7.35;;;6.60;1.00;;;;;;7383409;19;20014;-68
2023/12/16 10:26:53;;;;;;;12.82;8.52;;;6.90;1.00;;;;;;7380171;19;20011;-69
2023/12/16 10:29:23;;;;;;;11.48;8.27;;;6.80;1.00;;;;;;7377761;19;20020;-69
2023/12/16 10:31:53;;;;;;;15.73;8.70;;;6.70;1.00;;;;;;7377053;19;20030;-69
2023/12/16 10:34:24;;;;;;;11.60;8.75;;;6.70;1.00;;;;;;7376851;19;20018;-70
2023/12/16 10:36:54;;;;;;;13.00;8.80;;;6.70;1.00;;;;;;7379453;19;20014;-70
2023/12/16 10:39:24;;;;;;;13.15;9.43;;;6.60;1.00;;;;;;7378839;19;20018;-69
2023/12/16 10:41:56;;;;;;;10.07;8.32;;;6.80;1.00;;;;;;7378385;19;20010;-69
2023/12/16 10:44:26;;;;;;;10.60;8.15;;;6.80;1.00;;;;;;7379365;19;20019;-69
2023/12/16 10:46:57;;;;;;;12.20;8.68;;;6.80;1.00;;;;;;7378868;19;20014;-70
2023/12/16 10:49:31;;;;;;;11.48;9.00;;;7.00;1.00;;;;;;7377243;19;20522;-69
2023/12/16 10:52:08;;;;;;;15.75;9.38;;;6.90;1.00;;;;;;7377498;19;20002;-69
2023/12/16 10:54:42;;;;;;;15.20;9.23;;;7.00;1.00;;;;;;7378059;19;20090;-69
2023/12/16 10:57:22;;;;;;;12.82;8.90;;;7.20;1.00;;;;;;7378108;19;20050;-69
2023/12/16 11:00:00;;;;;;;12.23;9.02;;;7.10;1.00;;;;;;7378595;19;20006;-69
2023/12/16 11:02:34;;;;;;;13.93;8.52;;;7.10;1.00;;;;;;7376359;19;20461;-69
2023/12/16 11:05:09;;;;;;;10.77;8.52;;;7.10;1.00;;;;;;7376773;19;20018;-68
2023/12/16 11:07:41;;;;;;;13.13;8.90;;;7.10;1.00;;;;;;7376860;19;20010;-69
2023/12/16 11:10:12;;;;;;;12.65;8.77;;;7.20;1.00;;;;;;7376783;19;20010;-69
2023/12/16 11:12:45;;;;;;;13.00;9.35;;;7.10;1.00;;;;;;7378431;19;20441;-69
2023/12/16 11:15:16;;;;;;;12.57;8.23;;;7.30;1.00;;;;;;7376127;19;20023;-70
2023/12/16 11:17:55;;;;;;;11.50;8.77;;;7.30;1.00;;;;;;7376757;19;20024;-69
2023/12/16 11:20:35;;;;;;;12.80;9.13;;;7.00;1.00;;;;;;7377494;19;20014;-68
2023/12/16 11:23:06;;;;;;;12.73;9.65;;;7.20;1.00;;;;;;7374461;19;20007;-69
2023/12/16 11:25:37;;;;;;;15.80;8.70;;;7.10;1.00;;;;;;7375955;19;20010;-70
2023/12/16 11:28:12;;;;;;;12.68;9.25;;;7.10;1.00;;;;;;7373743;19;20021;-69
2023/12/16 11:30:43;;;;;;;12.60;9.20;;;7.20;1.00;;;;;;7375114;19;20019;-70
2023/12/16 11:33:14;;;;;;;12.25;8.85;;;7.40;1.00;;;;;;7376115;19;20109;-68
2023/12/16 11:35:53;;;;;;;12.07;8.23;;;7.20;1.00;;;;;;7371460;19;21445;-69
2023/12/16 11:38:46;;;;;;;11.10;8.30;;;7.20;1.00;;;;;;7369842;19;20078;-70
2023/12/16 11:41:48;;;;;;;11.07;8.48;;;7.20;1.00;;;;;;6857191;19;2003859;-69
2023/12/16 11:44:51;;;;;;;14.63;9.73;;;7.40;1.00;;;;;;6839218;19;2003779;-71
2023/12/16 11:47:26;;;;;;;15.75;9.75;;;7.40;1.00;;;;;;6859991;19;2003927;-69
2023/12/16 11:49:58;;;;;;;11.73;8.77;;;7.30;1.00;;;;;;7371580;19;20011;-70
2023/12/16 11:52:28;;;;;;;11.73;8.10;;;7.30;1.00;;;;;;7372428;19;20025;-69
2023/12/16 11:55:00;;;;;;;14.38;7.97;;;7.30;1.00;;;;;;7372615;19;20007;-69
2023/12/16 11:57:31;;;;;;;13.10;8.38;;;7.20;1.00;;;;;;7370444;19;20010;-68
2023/12/16 12:00:05;;;;;;;12.68;8.93;;;7.10;1.00;;;;;;7371171;19;20031;-70
2023/12/16 12:02:36;;;;;;;14.98;8.95;;;6.80;1.00;;;;;;7371068;19;20113;-68
2023/12/16 12:05:11;;;;;;;12.75;8.38;;;7.00;1.00;;;;;;7365545;19;20025;-70
2023/12/16 12:07:42;;;;;;;12.63;8.20;;;6.80;1.00;;;;;;7324802;19;20021;-70
2023/12/16 12:10:13;;;;;;;15.07;9.43;;;6.90;1.00;;;;;;7366592;19;20010;-69
2023/12/16 12:12:44;;;;;;;12.63;9.60;;;6.80;1.00;;;;;;7369454;19;20417;-69
2023/12/16 12:15:18;;;;;;;14.70;10.18;;;7.10;1.00;;;;;;7347176;19;20021;-69
2023/12/16 12:17:50;;;;;;;13.55;10.00;;;7.10;1.00;;;;;;7363376;19;20015;-69
2023/12/16 12:20:22;;;;;;;15.05;9.35;;;7.20;1.00;;;;;;7369073;19;20019;-70
2023/12/16 12:22:54;;;;;;;12.10;8.73;;;7.20;1.00;;;;;;7368344;19;21771;-68
2023/12/16 12:25:25;;;;;;;16.00;9.07;;;7.30;1.00;;;;;;7361858;19;20031;-69
2023/12/16 12:27:56;;;;;;;15.23;9.57;;;7.10;1.00;;;;;;7372449;19;20836;-69
2023/12/16 12:30:30;;;;;;;15.48;9.95;;;7.00;1.00;;;;;;7352563;19;20086;-68
2023/12/16 12:33:01;;;;;;;12.80;9.68;;;7.10;1.00;;;;;;7377151;19;20018;-70
2023/12/16 12:35:33;;;;;;;13.38;8.80;;;7.20;1.00;;;;;;7372678;19;20014;-69
2023/12/16 12:38:05;;;;;;;14.20;9.90;;;7.10;1.00;;;;;;7368174;19;20031;-70
2023/12/16 12:40:36;;;;;;;15.07;9.35;;;7.10;1.00;;;;;;7361178;19;20015;-70
2023/12/16 12:43:07;;;;;;;15.57;9.40;;;7.20;1.00;;;;;;7366549;19;20014;-70
2023/12/16 12:45:40;;;;;;;13.70;8.85;;;7.10;1.00;;;;;;7345893;19;20007;-71
2023/12/16 12:48:13;;;;;;;15.57;8.93;;;7.10;1.00;;;;;;7379057;19;20018;-69
2023/12/16 12:50:45;;;;;;;14.73;7.50;;;7.20;1.00;;;;;;7357802;19;20467;-69
2023/12/16 12:53:19;;;;;;;12.05;7.57;;;7.10;1.00;;;;;;7373699;19;20017;-69
2023/12/16 12:55:56;;;;;;;14.07;7.95;;;7.00;1.00;;;;;;7381116;19;20072;-69
2023/12/16 12:58:27;;;;;;;13.20;7.43;;;7.10;1.00;;;;;;7383835;19;20011;-69
2023/12/16 13:01:04;;;;;;;11.77;6.78;;;7.00;1.00;;;;;;7383540;19;20388;-69
2023/12/16 13:03:36;;;;;;;14.02;10.05;;;7.20;1.00;;;;;;7380367;19;20044;-69
2023/12/16 13:06:07;;;;;;;14.63;7.93;;;7.40;1.00;;;;;;7383016;19;20006;-68
2023/12/16 13:08:39;;;;;;;12.07;6.80;;;7.50;1.00;;;;;;7380361;19;20014;-69